sensor_id;sensor_type;location;lat;lon;timestamp;temperature;humidity
20831;DHT22;10576;53.556;9.868;2023-07-02T00:02:14;14.60;99.90
20831;DHT22;10576;53.556;9.868;2023-07-02T00:04:40;14.60;99.90
20831;DHT22;10576;53.556;9.868;2023-07-02T00:07:05;14.60;99.90
20831;DHT22;10576;53.556;9.868;2023-07-02T00:09:31;14.50;99.90
20831;DHT22;10576;53.556;9.868;2023-07-02T00:11:56;14.50;99.90
20831;DHT22;10576;53.556;9.868;2023-07-02T00:14:22;14.50;99.90
20831;DHT22;10576;53.556;9.868;2023-07-02T00:16:47;14.50;99.90
20831;DHT22;10576;53.556;9.868;2023-07-02T00:19:13;14.40;99.90
20831;DHT22;10576;53.556;9.868;2023-07-02T00:21:39;14.40;99.90
20831;DHT22;10576;53.556;9.868;2023-07-02T00:24:06;14.50;99.90
20831;DHT22;10576;53.556;9.868;2023-07-02T00:26:31;14.50;99.90
20831;DHT22;10576;53.556;9.868;2023-07-02T00:28:57;15.30;99.90
20831;DHT22;10576;53.556;9.868;2023-07-02T00:31:23;14.50;99.90
20831;DHT22;10576;53.556;9.868;2023-07-02T00:33:49;14.50;99.90
20831;DHT22;10576;53.556;9.868;2023-07-02T00:36:14;14.50;99.90
20831;DHT22;10576;53.556;9.868;2023-07-02T00:38:40;14.50;99.90
20831;DHT22;10576;53.556;9.868;2023-07-02T00:41:06;14.50;99.90
20831;DHT22;10576;53.556;9.868;2023-07-02T00:43:31;14.50;99.90
20831;DHT22;10576;53.556;9.868;2023-07-02T00:45:57;14.50;99.90
20831;DHT22;10576;53.556;9.868;2023-07-02T00:48:23;14.50;99.90
20831;DHT22;10576;53.556;9.868;2023-07-02T00:50:48;14.50;99.90
20831;DHT22;10576;53.556;9.868;2023-07-02T00:53:14;14.50;99.90
20831;DHT22;10576;53.556;9.868;2023-07-02T00:55:39;14.50;99.90
20831;DHT22;10576;53.556;9.868;2023-07-02T00:58:05;14.50;99.90
20831;DHT22;10576;53.556;9.868;2023-07-02T01:00:30;14.60;99.90
20831;DHT22;10576;53.556;9.868;2023-07-02T01:02:56;14.50;99.90
20831;DHT22;10576;53.556;9.868;2023-07-02T01:05:28;14.60;99.90
20831;DHT22;10576;53.556;9.868;2023-07-02T01:07:57;14.60;99.90
20831;DHT22;10576;53.556;9.868;2023-07-02T01:10:23;14.60;99.90
20831;DHT22;10576;53.556;9.868;2023-07-02T01:12:48;14.60;99.90
20831;DHT22;10576;53.556;9.868;2023-07-02T01:15:14;14.50;99.90
20831;DHT22;10576;53.556;9.868;2023-07-02T01:17:39;14.50;99.90
20831;DHT22;10576;53.556;9.868;2023-07-02T01:20:07;14.50;99.90
20831;DHT22;10576;53.556;9.868;2023-07-02T01:22:34;14.60;99.90
20831;DHT22;10576;53.556;9.868;2023-07-02T01:24:59;14.60;99.90
20831;DHT22;10576;53.556;9.868;2023-07-02T01:27:27;14.50;99.90
20831;DHT22;10576;53.556;9.868;2023-07-02T01:29:53;14.60;99.90
20831;DHT22;10576;53.556;9.868;2023-07-02T01:32:19;14.60;99.90
20831;DHT22;10576;53.556;9.868;2023-07-02T01:34:44;14.60;99.90
20831;DHT22;10576;53.556;9.868;2023-07-02T01:37:13;14.60;99.90
20831;DHT22;10576;53.556;9.868;2023-07-02T01:39:39;14.70;99.90
20831;DHT22;10576;53.556;9.868;2023-07-02T01:42:08;14.60;99.90
20831;DHT22;10576;53.556;9.868;2023-07-02T01:44:34;14.70;99.90
20831;DHT22;10576;53.556;9.868;2023-07-02T01:47:00;14.70;99.90
20831;DHT22;10576;53.556;9.868;2023-07-02T01:49:25;14.60;99.90
20831;DHT22;10576;53.556;9.868;2023-07-02T01:51:51;14.60;99.90
20831;DHT22;10576;53.556;9.868;2023-07-02T01:54:21;14.70;99.90
20831;DHT22;10576;53.556;9.868;2023-07-02T01:56:47;14.70;99.90
20831;DHT22;10576;53.556;9.868;2023-07-02T01:59:13;14.70;99.90
20831;DHT22;10576;53.556;9.868;2023-07-02T02:01:38;14.60;99.90
20831;DHT22;10576;53.556;9.868;2023-07-02T02:04:09;14.60;99.90
20831;DHT22;10576;53.556;9.868;2023-07-02T02:06:34;14.60;99.90
20831;DHT22;10576;53.556;9.868;2023-07-02T02:09:00;14.60;99.90
20831;DHT22;10576;53.556;9.868;2023-07-02T02:11:26;14.50;99.90
20831;DHT22;10576;53.556;9.868;2023-07-02T02:13:51;14.50;99.90
20831;DHT22;10576;53.556;9.868;2023-07-02T02:16:17;14.50;99.90
20831;DHT22;10576;53.556;9.868;2023-07-02T02:18:42;14.40;99.90
20831;DHT22;10576;53.556;9.868;2023-07-02T02:21:08;14.40;99.90
20831;DHT22;10576;53.556;9.868;2023-07-02T02:23:34;14.40;99.90
20831;DHT22;10576;53.556;9.868;2023-07-02T02:25:59;14.40;99.90
20831;DHT22;10576;53.556;9.868;2023-07-02T02:28:25;14.40;99.90
20831;DHT22;10576;53.556;9.868;2023-07-02T02:30:50;14.40;99.90
20831;DHT22;10576;53.556;9.868;2023-07-02T02:33:16;14.30;99.90
20831;DHT22;10576;53.556;9.868;2023-07-02T02:35:41;14.30;99.90
20831;DHT22;10576;53.556;9.868;2023-07-02T02:38:06;14.30;99.90
20831;DHT22;10576;53.556;9.868;2023-07-02T02:40:32;14.30;99.90
20831;DHT22;10576;53.556;9.868;2023-07-02T02:42:57;14.30;99.90
20831;DHT22;10576;53.556;9.868;2023-07-02T02:45:23;14.30;99.90
20831;DHT22;10576;53.556;9.868;2023-07-02T02:47:48;14.30;99.90
20831;DHT22;10576;53.556;9.868;2023-07-02T02:50:14;14.30;99.90
20831;DHT22;10576;53.556;9.868;2023-07-02T02:52:39;14.30;99.90
20831;DHT22;10576;53.556;9.868;2023-07-02T02:55:05;14.30;99.90
20831;DHT22;10576;53.556;9.868;2023-07-02T02:57:31;14.30;99.90
20831;DHT22;10576;53.556;9.868;2023-07-02T02:59:57;14.30;99.90
20831;DHT22;10576;53.556;9.868;2023-07-02T03:02:23;14.30;99.90
20831;DHT22;10576;53.556;9.868;2023-07-02T03:04:48;14.30;99.90
20831;DHT22;10576;53.556;9.868;2023-07-02T03:07:15;14.30;99.90
20831;DHT22;10576;53.556;9.868;2023-07-02T03:09:40;14.30;99.90
20831;DHT22;10576;53.556;9.868;2023-07-02T03:12:06;14.30;99.90
20831;DHT22;10576;53.556;9.868;2023-07-02T03:14:32;14.30;99.90
20831;DHT22;10576;53.556;9.868;2023-07-02T03:16:57;14.30;99.90
20831;DHT22;10576;53.556;9.868;2023-07-02T03:19:22;14.30;99.90
20831;DHT22;10576;53.556;9.868;2023-07-02T03:21:48;14.30;99.90
20831;DHT22;10576;53.556;9.868;2023-07-02T03:24:13;14.20;99.90
20831;DHT22;10576;53.556;9.868;2023-07-02T03:26:39;14.20;99.90
20831;DHT22;10576;53.556;9.868;2023-07-02T03:29:05;14.20;99.90
20831;DHT22;10576;53.556;9.868;2023-07-02T03:31:31;14.20;99.90
20831;DHT22;10576;53.556;9.868;2023-07-02T03:33:56;14.20;99.90
20831;DHT22;10576;53.556;9.868;2023-07-02T03:36:22;14.20;99.90
20831;DHT22;10576;53.556;9.868;2023-07-02T03:38:47;14.20;99.90
20831;DHT22;10576;53.556;9.868;2023-07-02T03:41:13;14.20;99.90
20831;DHT22;10576;53.556;9.868;2023-07-02T03:43:38;14.20;99.90
20831;DHT22;10576;53.556;9.868;2023-07-02T03:46:04;14.20;99.90
20831;DHT22;10576;53.556;9.868;2023-07-02T03:48:29;14.20;99.90
20831;DHT22;10576;53.556;9.868;2023-07-02T03:50:55;14.20;99.90
20831;DHT22;10576;53.556;9.868;2023-07-02T03:53:20;14.20;99.90
20831;DHT22;10576;53.556;9.868;2023-07-02T03:55:46;14.20;99.90
20831;DHT22;10576;53.556;9.868;2023-07-02T03:58:11;14.20;99.90
20831;DHT22;10576;53.556;9.868;2023-07-02T04:00:37;14.30;99.90
20831;DHT22;10576;53.556;9.868;2023-07-02T04:03:02;14.30;99.90
20831;DHT22;10576;53.556;9.868;2023-07-02T04:05:28;14.30;99.90
20831;DHT22;10576;53.556;9.868;2023-07-02T04:07:54;14.30;99.90
20831;DHT22;10576;53.556;9.868;2023-07-02T04:10:19;14.30;99.90
20831;DHT22;10576;53.556;9.868;2023-07-02T04:12:45;14.30;99.90
20831;DHT22;10576;53.556;9.868;2023-07-02T04:15:10;14.30;99.90
20831;DHT22;10576;53.556;9.868;2023-07-02T04:17:36;14.30;99.90
20831;DHT22;10576;53.556;9.868;2023-07-02T04:20:02;14.30;99.90
20831;DHT22;10576;53.556;9.868;2023-07-02T04:22:29;14.30;99.90
20831;DHT22;10576;53.556;9.868;2023-07-02T04:24:55;14.30;99.90
20831;DHT22;10576;53.556;9.868;2023-07-02T04:27:21;14.30;99.90
20831;DHT22;10576;53.556;9.868;2023-07-02T04:29:46;14.30;99.90
20831;DHT22;10576;53.556;9.868;2023-07-02T04:32:12;14.30;99.90
20831;DHT22;10576;53.556;9.868;2023-07-02T04:34:37;14.40;99.90
20831;DHT22;10576;53.556;9.868;2023-07-02T04:37:04;14.40;99.90
20831;DHT22;10576;53.556;9.868;2023-07-02T04:39:29;14.30;99.90
20831;DHT22;10576;53.556;9.868;2023-07-02T04:41:55;14.40;99.90
20831;DHT22;10576;53.556;9.868;2023-07-02T04:44:20;14.50;99.90
20831;DHT22;10576;53.556;9.868;2023-07-02T04:46:48;14.50;99.90
20831;DHT22;10576;53.556;9.868;2023-07-02T04:49:14;14.50;99.90
20831;DHT22;10576;53.556;9.868;2023-07-02T04:51:40;14.50;99.90
20831;DHT22;10576;53.556;9.868;2023-07-02T04:54:05;14.50;99.90
20831;DHT22;10576;53.556;9.868;2023-07-02T04:56:30;14.50;99.90
20831;DHT22;10576;53.556;9.868;2023-07-02T04:58:56;14.60;99.90
20831;DHT22;10576;53.556;9.868;2023-07-02T05:01:21;14.60;99.90
20831;DHT22;10576;53.556;9.868;2023-07-02T05:03:47;14.60;99.90
20831;DHT22;10576;53.556;9.868;2023-07-02T05:06:12;14.60;99.90
20831;DHT22;10576;53.556;9.868;2023-07-02T05:08:38;14.70;99.90
20831;DHT22;10576;53.556;9.868;2023-07-02T05:11:03;14.70;99.90
20831;DHT22;10576;53.556;9.868;2023-07-02T05:13:29;14.70;99.90
20831;DHT22;10576;53.556;9.868;2023-07-02T05:15:54;14.80;99.90
20831;DHT22;10576;53.556;9.868;2023-07-02T05:18:20;14.80;99.90
20831;DHT22;10576;53.556;9.868;2023-07-02T05:20:45;14.90;99.90
20831;DHT22;10576;53.556;9.868;2023-07-02T05:23:11;14.90;99.90
20831;DHT22;10576;53.556;9.868;2023-07-02T05:25:36;15.00;99.90
20831;DHT22;10576;53.556;9.868;2023-07-02T05:28:02;15.00;99.90
20831;DHT22;10576;53.556;9.868;2023-07-02T05:30:27;15.10;99.90
20831;DHT22;10576;53.556;9.868;2023-07-02T05:32:53;15.30;99.90
20831;DHT22;10576;53.556;9.868;2023-07-02T05:35:18;15.30;99.90
20831;DHT22;10576;53.556;9.868;2023-07-02T05:37:44;15.40;99.90
20831;DHT22;10576;53.556;9.868;2023-07-02T05:40:11;15.50;99.90
20831;DHT22;10576;53.556;9.868;2023-07-02T05:42:36;15.60;99.90
20831;DHT22;10576;53.556;9.868;2023-07-02T05:45:03;15.70;99.90
20831;DHT22;10576;53.556;9.868;2023-07-02T05:47:28;14.60;99.90
20831;DHT22;10576;53.556;9.868;2023-07-02T05:49:54;15.80;99.90
20831;DHT22;10576;53.556;9.868;2023-07-02T05:52:19;15.80;99.90
20831;DHT22;10576;53.556;9.868;2023-07-02T05:54:45;15.90;99.90
20831;DHT22;10576;53.556;9.868;2023-07-02T05:57:10;15.80;99.90
20831;DHT22;10576;53.556;9.868;2023-07-02T05:59:37;15.90;99.90
20831;DHT22;10576;53.556;9.868;2023-07-02T06:02:03;16.00;99.90
20831;DHT22;10576;53.556;9.868;2023-07-02T06:04:28;16.10;99.90
20831;DHT22;10576;53.556;9.868;2023-07-02T06:06:54;16.10;99.90
20831;DHT22;10576;53.556;9.868;2023-07-02T06:09:19;16.10;99.90
20831;DHT22;10576;53.556;9.868;2023-07-02T06:11:45;16.10;99.90
20831;DHT22;10576;53.556;9.868;2023-07-02T06:14:10;16.10;99.90
20831;DHT22;10576;53.556;9.868;2023-07-02T06:16:35;16.00;99.90
20831;DHT22;10576;53.556;9.868;2023-07-02T06:19:01;16.10;99.90
20831;DHT22;10576;53.556;9.868;2023-07-02T06:21:27;16.10;99.90
20831;DHT22;10576;53.556;9.868;2023-07-02T06:23:56;16.10;99.90
20831;DHT22;10576;53.556;9.868;2023-07-02T06:26:22;16.20;99.90
20831;DHT22;10576;53.556;9.868;2023-07-02T06:28:47;16.20;99.90
20831;DHT22;10576;53.556;9.868;2023-07-02T06:31:13;16.20;99.90
20831;DHT22;10576;53.556;9.868;2023-07-02T06:33:39;16.30;99.90
20831;DHT22;10576;53.556;9.868;2023-07-02T06:36:05;16.30;99.90
20831;DHT22;10576;53.556;9.868;2023-07-02T06:38:31;16.30;99.90
20831;DHT22;10576;53.556;9.868;2023-07-02T06:40:57;16.30;99.90
20831;DHT22;10576;53.556;9.868;2023-07-02T06:43:22;16.40;99.90
20831;DHT22;10576;53.556;9.868;2023-07-02T06:45:48;16.50;99.90
20831;DHT22;10576;53.556;9.868;2023-07-02T06:48:13;16.60;99.90
20831;DHT22;10576;53.556;9.868;2023-07-02T06:50:44;16.60;99.90
20831;DHT22;10576;53.556;9.868;2023-07-02T06:53:11;16.70;99.90
20831;DHT22;10576;53.556;9.868;2023-07-02T06:55:36;16.90;99.90
20831;DHT22;10576;53.556;9.868;2023-07-02T06:58:02;16.90;99.90
20831;DHT22;10576;53.556;9.868;2023-07-02T07:00:30;16.90;99.90
20831;DHT22;10576;53.556;9.868;2023-07-02T07:02:56;17.00;99.90
20831;DHT22;10576;53.556;9.868;2023-07-02T07:05:22;17.00;99.90
20831;DHT22;10576;53.556;9.868;2023-07-02T07:07:47;17.10;99.90
20831;DHT22;10576;53.556;9.868;2023-07-02T07:10:13;17.30;99.90
20831;DHT22;10576;53.556;9.868;2023-07-02T07:12:38;17.30;99.90
20831;DHT22;10576;53.556;9.868;2023-07-02T07:15:04;17.30;99.90
20831;DHT22;10576;53.556;9.868;2023-07-02T07:17:29;17.30;99.90
20831;DHT22;10576;53.556;9.868;2023-07-02T07:19:55;17.20;99.90
20831;DHT22;10576;53.556;9.868;2023-07-02T07:22:20;17.10;99.90
20831;DHT22;10576;53.556;9.868;2023-07-02T07:24:46;17.90;99.90
20831;DHT22;10576;53.556;9.868;2023-07-02T07:27:11;17.00;99.90
20831;DHT22;10576;53.556;9.868;2023-07-02T07:29:37;17.00;99.90
20831;DHT22;10576;53.556;9.868;2023-07-02T07:32:02;17.00;99.90
20831;DHT22;10576;53.556;9.868;2023-07-02T07:34:28;17.00;99.90
20831;DHT22;10576;53.556;9.868;2023-07-02T07:36:53;17.00;99.90
20831;DHT22;10576;53.556;9.868;2023-07-02T07:39:19;17.00;99.90
20831;DHT22;10576;53.556;9.868;2023-07-02T07:41:47;17.10;99.90
20831;DHT22;10576;53.556;9.868;2023-07-02T07:44:16;17.20;99.90
20831;DHT22;10576;53.556;9.868;2023-07-02T07:46:41;17.20;99.90
20831;DHT22;10576;53.556;9.868;2023-07-02T07:49:07;17.10;99.90
20831;DHT22;10576;53.556;9.868;2023-07-02T07:51:32;17.10;99.90
20831;DHT22;10576;53.556;9.868;2023-07-02T07:53:58;17.30;99.90
20831;DHT22;10576;53.556;9.868;2023-07-02T07:56:23;17.50;99.90
20831;DHT22;10576;53.556;9.868;2023-07-02T07:58:48;17.70;99.90
20831;DHT22;10576;53.556;9.868;2023-07-02T08:01:14;18.00;99.90
20831;DHT22;10576;53.556;9.868;2023-07-02T08:03:39;18.00;99.90
20831;DHT22;10576;53.556;9.868;2023-07-02T08:06:05;18.30;99.90
20831;DHT22;10576;53.556;9.868;2023-07-02T08:08:31;18.70;99.90
20831;DHT22;10576;53.556;9.868;2023-07-02T08:10:56;19.10;99.90
20831;DHT22;10576;53.556;9.868;2023-07-02T08:13:22;19.20;99.90
20831;DHT22;10576;53.556;9.868;2023-07-02T08:15:47;19.00;99.90
20831;DHT22;10576;53.556;9.868;2023-07-02T08:18:13;18.80;99.90
20831;DHT22;10576;53.556;9.868;2023-07-02T08:20:38;18.60;99.90
20831;DHT22;10576;53.556;9.868;2023-07-02T08:23:04;18.40;99.90
20831;DHT22;10576;53.556;9.868;2023-07-02T08:25:29;18.30;99.90
20831;DHT22;10576;53.556;9.868;2023-07-02T08:27:55;18.30;99.90
20831;DHT22;10576;53.556;9.868;2023-07-02T08:30:21;18.30;99.90
20831;DHT22;10576;53.556;9.868;2023-07-02T08:32:46;18.50;99.90
20831;DHT22;10576;53.556;9.868;2023-07-02T08:35:12;18.90;99.90
20831;DHT22;10576;53.556;9.868;2023-07-02T08:37:37;19.40;99.90
20831;DHT22;10576;53.556;9.868;2023-07-02T08:40:03;19.70;99.90
20831;DHT22;10576;53.556;9.868;2023-07-02T08:42:31;19.80;99.90
20831;DHT22;10576;53.556;9.868;2023-07-02T08:44:57;19.90;99.90
20831;DHT22;10576;53.556;9.868;2023-07-02T08:47:24;20.30;99.90
20831;DHT22;10576;53.556;9.868;2023-07-02T08:49:50;20.50;99.90
20831;DHT22;10576;53.556;9.868;2023-07-02T08:52:15;20.60;99.90
20831;DHT22;10576;53.556;9.868;2023-07-02T08:54:41;20.80;99.90
20831;DHT22;10576;53.556;9.868;2023-07-02T08:57:08;20.60;99.90
20831;DHT22;10576;53.556;9.868;2023-07-02T08:59:35;20.40;99.90
20831;DHT22;10576;53.556;9.868;2023-07-02T09:02:01;20.30;99.90
20831;DHT22;10576;53.556;9.868;2023-07-02T09:04:26;20.80;99.90
20831;DHT22;10576;53.556;9.868;2023-07-02T09:07:08;21.00;99.90
20831;DHT22;10576;53.556;9.868;2023-07-02T09:09:47;21.00;99.90
20831;DHT22;10576;53.556;9.868;2023-07-02T09:12:25;20.10;99.90
20831;DHT22;10576;53.556;9.868;2023-07-02T09:14:58;19.60;99.90
20831;DHT22;10576;53.556;9.868;2023-07-02T09:17:30;19.10;99.90
20831;DHT22;10576;53.556;9.868;2023-07-02T09:19:56;18.90;99.90
20831;DHT22;10576;53.556;9.868;2023-07-02T09:22:22;18.70;99.90
20831;DHT22;10576;53.556;9.868;2023-07-02T09:24:51;18.50;99.90
20831;DHT22;10576;53.556;9.868;2023-07-02T09:27:18;18.30;99.90
20831;DHT22;10576;53.556;9.868;2023-07-02T09:29:49;18.00;99.90
20831;DHT22;10576;53.556;9.868;2023-07-02T09:32:23;17.80;99.90
20831;DHT22;10576;53.556;9.868;2023-07-02T09:34:48;17.60;99.90
20831;DHT22;10576;53.556;9.868;2023-07-02T09:37:14;17.80;99.90
20831;DHT22;10576;53.556;9.868;2023-07-02T09:39:39;18.40;99.90
20831;DHT22;10576;53.556;9.868;2023-07-02T09:42:05;19.00;99.90
20831;DHT22;10576;53.556;9.868;2023-07-02T09:44:32;19.30;99.90
20831;DHT22;10576;53.556;9.868;2023-07-02T09:47:01;19.70;99.90
20831;DHT22;10576;53.556;9.868;2023-07-02T09:49:27;19.90;99.90
20831;DHT22;10576;53.556;9.868;2023-07-02T09:51:56;20.00;99.90
20831;DHT22;10576;53.556;9.868;2023-07-02T09:54:22;20.30;99.90
20831;DHT22;10576;53.556;9.868;2023-07-02T09:56:47;20.40;99.90
20831;DHT22;10576;53.556;9.868;2023-07-02T09:59:13;20.30;99.90
20831;DHT22;10576;53.556;9.868;2023-07-02T10:01:39;20.40;99.90
20831;DHT22;10576;53.556;9.868;2023-07-02T10:04:11;20.40;99.90
20831;DHT22;10576;53.556;9.868;2023-07-02T10:06:44;20.50;99.90
20831;DHT22;10576;53.556;9.868;2023-07-02T10:09:09;21.00;99.90
20831;DHT22;10576;53.556;9.868;2023-07-02T10:11:35;21.00;99.90
20831;DHT22;10576;53.556;9.868;2023-07-02T10:14:00;20.70;99.90
20831;DHT22;10576;53.556;9.868;2023-07-02T10:16:26;20.50;99.90
20831;DHT22;10576;53.556;9.868;2023-07-02T10:18:53;20.30;99.90
20831;DHT22;10576;53.556;9.868;2023-07-02T10:21:19;20.30;99.90
20831;DHT22;10576;53.556;9.868;2023-07-02T10:23:44;20.00;99.90
20831;DHT22;10576;53.556;9.868;2023-07-02T10:26:19;19.80;99.90
20831;DHT22;10576;53.556;9.868;2023-07-02T10:28:57;19.50;99.90
20831;DHT22;10576;53.556;9.868;2023-07-02T10:31:23;19.20;99.90
20831;DHT22;10576;53.556;9.868;2023-07-02T10:33:48;19.00;99.90
20831;DHT22;10576;53.556;9.868;2023-07-02T10:36:17;18.90;99.90
20831;DHT22;10576;53.556;9.868;2023-07-02T10:38:43;18.70;99.90
20831;DHT22;10576;53.556;9.868;2023-07-02T10:41:09;18.60;99.90
20831;DHT22;10576;53.556;9.868;2023-07-02T10:43:34;18.40;99.90
20831;DHT22;10576;53.556;9.868;2023-07-02T10:46:00;18.20;99.90
20831;DHT22;10576;53.556;9.868;2023-07-02T10:48:25;18.10;99.90
20831;DHT22;10576;53.556;9.868;2023-07-02T10:50:51;18.00;99.90
20831;DHT22;10576;53.556;9.868;2023-07-02T10:53:17;17.90;99.90
20831;DHT22;10576;53.556;9.868;2023-07-02T10:55:43;17.80;99.90
20831;DHT22;10576;53.556;9.868;2023-07-02T10:58:09;17.80;99.90
20831;DHT22;10576;53.556;9.868;2023-07-02T11:00:47;18.10;99.90
20831;DHT22;10576;53.556;9.868;2023-07-02T11:03:16;18.60;99.90
20831;DHT22;10576;53.556;9.868;2023-07-02T11:05:42;19.30;99.90
20831;DHT22;10576;53.556;9.868;2023-07-02T11:08:08;19.70;99.90
20831;DHT22;10576;53.556;9.868;2023-07-02T11:10:34;20.20;99.90
20831;DHT22;10576;53.556;9.868;2023-07-02T11:13:09;20.50;99.90
20831;DHT22;10576;53.556;9.868;2023-07-02T11:15:35;21.00;99.90
20831;DHT22;10576;53.556;9.868;2023-07-02T11:18:11;21.40;99.90
20831;DHT22;10576;53.556;9.868;2023-07-02T11:20:36;21.00;99.90
20831;DHT22;10576;53.556;9.868;2023-07-02T11:23:02;20.40;99.90
20831;DHT22;10576;53.556;9.868;2023-07-02T11:25:27;20.30;99.90
20831;DHT22;10576;53.556;9.868;2023-07-02T11:28:03;20.70;99.90
20831;DHT22;10576;53.556;9.868;2023-07-02T11:30:28;21.10;99.90
20831;DHT22;10576;53.556;9.868;2023-07-02T11:32:54;21.20;99.90
20831;DHT22;10576;53.556;9.868;2023-07-02T11:35:20;21.70;99.90
20831;DHT22;10576;53.556;9.868;2023-07-02T11:37:45;21.60;99.90
20831;DHT22;10576;53.556;9.868;2023-07-02T11:40:11;21.70;99.90
20831;DHT22;10576;53.556;9.868;2023-07-02T11:42:37;22.20;99.90
20831;DHT22;10576;53.556;9.868;2023-07-02T11:45:03;22.10;99.90
20831;DHT22;10576;53.556;9.868;2023-07-02T11:47:29;21.70;99.90
20831;DHT22;10576;53.556;9.868;2023-07-02T11:49:54;21.40;99.90
20831;DHT22;10576;53.556;9.868;2023-07-02T11:52:20;21.10;99.90
20831;DHT22;10576;53.556;9.868;2023-07-02T11:54:46;21.00;99.90
20831;DHT22;10576;53.556;9.868;2023-07-02T11:57:11;20.70;99.90
20831;DHT22;10576;53.556;9.868;2023-07-02T11:59:37;20.50;99.90
20831;DHT22;10576;53.556;9.868;2023-07-02T12:02:03;20.20;99.90
20831;DHT22;10576;53.556;9.868;2023-07-02T12:04:29;20.10;99.90
20831;DHT22;10576;53.556;9.868;2023-07-02T12:06:54;20.00;99.90
20831;DHT22;10576;53.556;9.868;2023-07-02T12:09:20;20.00;99.90
20831;DHT22;10576;53.556;9.868;2023-07-02T12:11:45;20.30;99.90
20831;DHT22;10576;53.556;9.868;2023-07-02T12:14:11;21.00;99.90
20831;DHT22;10576;53.556;9.868;2023-07-02T12:16:37;21.10;99.90
20831;DHT22;10576;53.556;9.868;2023-07-02T12:19:02;21.20;99.90
20831;DHT22;10576;53.556;9.868;2023-07-02T12:21:28;21.10;99.90
20831;DHT22;10576;53.556;9.868;2023-07-02T12:23:53;20.90;99.90
20831;DHT22;10576;53.556;9.868;2023-07-02T12:26:19;21.10;99.90
20831;DHT22;10576;53.556;9.868;2023-07-02T12:28:44;20.90;99.90
20831;DHT22;10576;53.556;9.868;2023-07-02T12:31:10;20.50;99.90
20831;DHT22;10576;53.556;9.868;2023-07-02T12:33:35;20.50;99.90
20831;DHT22;10576;53.556;9.868;2023-07-02T12:36:01;21.00;99.90
20831;DHT22;10576;53.556;9.868;2023-07-02T12:38:28;21.30;99.90
20831;DHT22;10576;53.556;9.868;2023-07-02T12:40:53;21.10;99.90
20831;DHT22;10576;53.556;9.868;2023-07-02T12:43:19;20.70;99.90
20831;DHT22;10576;53.556;9.868;2023-07-02T12:45:45;21.10;99.90
20831;DHT22;10576;53.556;9.868;2023-07-02T12:48:10;21.20;99.90
20831;DHT22;10576;53.556;9.868;2023-07-02T12:50:39;20.90;99.90
20831;DHT22;10576;53.556;9.868;2023-07-02T12:53:05;21.00;99.90
20831;DHT22;10576;53.556;9.868;2023-07-02T12:55:30;21.10;99.90
20831;DHT22;10576;53.556;9.868;2023-07-02T12:57:56;21.10;99.90
20831;DHT22;10576;53.556;9.868;2023-07-02T13:00:21;20.90;99.90
20831;DHT22;10576;53.556;9.868;2023-07-02T13:02:48;20.50;99.90
20831;DHT22;10576;53.556;9.868;2023-07-02T13:05:13;20.40;99.90
20831;DHT22;10576;53.556;9.868;2023-07-02T13:07:39;20.80;99.90
20831;DHT22;10576;53.556;9.868;2023-07-02T13:10:04;22.60;99.90
20831;DHT22;10576;53.556;9.868;2023-07-02T13:12:30;21.40;99.90
20831;DHT22;10576;53.556;9.868;2023-07-02T13:14:55;21.40;99.90
20831;DHT22;10576;53.556;9.868;2023-07-02T13:17:21;21.10;99.90
20831;DHT22;10576;53.556;9.868;2023-07-02T13:19:46;20.70;99.90
20831;DHT22;10576;53.556;9.868;2023-07-02T13:22:12;20.50;99.90
20831;DHT22;10576;53.556;9.868;2023-07-02T13:24:37;20.20;99.90
20831;DHT22;10576;53.556;9.868;2023-07-02T13:27:07;20.60;99.90
20831;DHT22;10576;53.556;9.868;2023-07-02T13:29:34;21.00;99.90
20831;DHT22;10576;53.556;9.868;2023-07-02T13:31:59;21.20;99.90
20831;DHT22;10576;53.556;9.868;2023-07-02T13:34:25;21.30;99.90
20831;DHT22;10576;53.556;9.868;2023-07-02T13:36:50;21.20;99.90
20831;DHT22;10576;53.556;9.868;2023-07-02T13:39:16;20.80;99.90
20831;DHT22;10576;53.556;9.868;2023-07-02T13:41:41;20.50;99.90
20831;DHT22;10576;53.556;9.868;2023-07-02T13:44:07;20.20;99.90
20831;DHT22;10576;53.556;9.868;2023-07-02T13:46:32;20.40;99.90
20831;DHT22;10576;53.556;9.868;2023-07-02T13:48:58;20.60;99.90
20831;DHT22;10576;53.556;9.868;2023-07-02T13:51:23;20.80;99.90
20831;DHT22;10576;53.556;9.868;2023-07-02T13:53:48;20.50;99.90
20831;DHT22;10576;53.556;9.868;2023-07-02T13:56:14;20.20;99.90
20831;DHT22;10576;53.556;9.868;2023-07-02T14:01:20;19.80;99.90
20831;DHT22;10576;53.556;9.868;2023-07-02T14:03:46;19.80;99.90
20831;DHT22;10576;53.556;9.868;2023-07-02T14:06:11;20.30;99.90
20831;DHT22;10576;53.556;9.868;2023-07-02T14:08:37;20.60;99.90
20831;DHT22;10576;53.556;9.868;2023-07-02T14:11:02;20.50;99.90
20831;DHT22;10576;53.556;9.868;2023-07-02T14:13:28;20.30;99.90
20831;DHT22;10576;53.556;9.868;2023-07-02T14:15:53;20.50;99.90
20831;DHT22;10576;53.556;9.868;2023-07-02T14:18:18;20.70;99.90
20831;DHT22;10576;53.556;9.868;2023-07-02T14:20:44;20.70;99.90
20831;DHT22;10576;53.556;9.868;2023-07-02T14:23:09;20.50;99.90
20831;DHT22;10576;53.556;9.868;2023-07-02T14:25:35;20.40;99.90
20831;DHT22;10576;53.556;9.868;2023-07-02T14:28:00;20.30;99.90
20831;DHT22;10576;53.556;9.868;2023-07-02T14:30:26;20.20;99.90
20831;DHT22;10576;53.556;9.868;2023-07-02T14:32:52;20.30;99.90
20831;DHT22;10576;53.556;9.868;2023-07-02T14:35:18;20.40;99.90
20831;DHT22;10576;53.556;9.868;2023-07-02T14:37:47;20.70;99.90
20831;DHT22;10576;53.556;9.868;2023-07-02T14:40:12;20.60;99.90
20831;DHT22;10576;53.556;9.868;2023-07-02T14:42:38;20.70;99.90
20831;DHT22;10576;53.556;9.868;2023-07-02T14:45:04;20.60;99.90
20831;DHT22;10576;53.556;9.868;2023-07-02T14:47:29;20.40;99.90
20831;DHT22;10576;53.556;9.868;2023-07-02T14:49:55;20.10;99.90
20831;DHT22;10576;53.556;9.868;2023-07-02T14:52:20;19.90;99.90
20831;DHT22;10576;53.556;9.868;2023-07-02T14:54:46;19.80;99.90
20831;DHT22;10576;53.556;9.868;2023-07-02T14:57:11;19.90;99.90
20831;DHT22;10576;53.556;9.868;2023-07-02T14:59:37;20.00;99.90
20831;DHT22;10576;53.556;9.868;2023-07-02T15:02:02;20.20;99.90
20831;DHT22;10576;53.556;9.868;2023-07-02T15:04:28;20.00;99.90
20831;DHT22;10576;53.556;9.868;2023-07-02T15:06:55;20.00;99.90
20831;DHT22;10576;53.556;9.868;2023-07-02T15:09:21;19.80;99.90
20831;DHT22;10576;53.556;9.868;2023-07-02T15:11:46;19.80;99.90
20831;DHT22;10576;53.556;9.868;2023-07-02T15:14:13;19.70;99.90
20831;DHT22;10576;53.556;9.868;2023-07-02T15:16:38;19.70;99.90
20831;DHT22;10576;53.556;9.868;2023-07-02T15:19:04;19.70;99.90
20831;DHT22;10576;53.556;9.868;2023-07-02T15:21:29;19.80;99.90
20831;DHT22;10576;53.556;9.868;2023-07-02T15:23:55;19.90;99.90
20831;DHT22;10576;53.556;9.868;2023-07-02T15:26:21;19.90;99.90